Time;durP1;ratioP1;P1;durP2;ratioP2;P2;SDS_P1;SDS_P2;PMS_P1;PMS_P2;Temp;Humidity;BMP_temperature;BMP_pressure;BME280_temperature;BME280_humidity;BME280_pressure;Samples;Min_cycle;Max_cycle;Signal;HPM_P1;HPM_P2
2023/08/23 00:00:42;;;;;;;11.95;7.38;;;;;;;;;;4912006;29;20063;-82
2023/08/23 00:03:10;;;;;;;7.88;6.60;;;;;;;;;;4906389;29;20500;-82
2023/08/23 00:05:37;;;;;;;8.15;7.13;;;;;;;;;;4918528;29;20060;-83
2023/08/23 00:08:05;;;;;;;7.35;6.65;;;;;;;;;;4894035;29;20055;-83
2023/08/23 00:10:37;;;;;;;8.90;6.47;;;;;;;;;;4907980;29;20527;-80
2023/08/23 00:13:05;;;;;;;9.35;6.55;;;;;;;;;;4923705;29;20056;-80
2023/08/23 00:15:42;;;;;;;7.57;6.38;;;;;;;;;;4918334;29;20066;-80
2023/08/23 00:18:12;;;;;;;9.02;7.15;;;;;;;;;;4904933;29;20063;-80
2023/08/23 00:20:39;;;;;;;8.98;6.47;;;;;;;;;;4906370;29;20052;-80
2023/08/23 00:23:08;;;;;;;11.05;7.57;;;;;;;;;;4900669;29;20074;-80
2023/08/23 00:25:40;;;;;;;10.82;8.13;;;;;;;;;;4933159;29;20059;-80
2023/08/23 00:28:15;;;;;;;7.22;6.53;;;;;;;;;;4902285;29;20508;-80
2023/08/23 00:30:50;;;;;;;9.40;7.70;;;;;;;;;;4919869;29;20059;-81
2023/08/23 00:33:17;;;;;;;9.48;7.88;;;;;;;;;;4898902;29;20052;-80
2023/08/23 00:35:47;;;;;;;9.75;7.40;;;;;;;;;;4918061;29;20515;-80
2023/08/23 00:38:16;;;;;;;10.85;7.88;;;;;;;;;;4910903;29;20063;-80
2023/08/23 00:40:46;;;;;;;10.05;6.95;;;;;;;;;;4897080;29;20050;-80
2023/08/23 00:43:14;;;;;;;8.50;7.60;;;;;;;;;;4899113;29;20079;-80
2023/08/23 00:45:46;;;;;;;10.45;6.80;;;;;;;;;;4886820;29;20067;-80
2023/08/23 00:48:14;;;;;;;8.25;6.05;;;;;;;;;;4908238;29;20059;-80
2023/08/23 00:50:45;;;;;;;7.30;6.32;;;;;;;;;;4900190;29;20076;-80
2023/08/23 00:53:15;;;;;;;10.88;6.82;;;;;;;;;;4902322;29;20519;-80
2023/08/23 00:55:42;;;;;;;9.98;7.38;;;;;;;;;;4910143;29;20078;-80
2023/08/23 00:58:16;;;;;;;8.73;7.78;;;;;;;;;;4902269;29;20499;-80
2023/08/23 01:00:46;;;;;;;8.02;6.93;;;;;;;;;;4904336;29;20063;-80
2023/08/23 01:03:16;;;;;;;7.75;6.85;;;;;;;;;;4887082;29;20066;-80
2023/08/23 01:05:52;;;;;;;8.30;7.38;;;;;;;;;;4897398;29;20048;-81
2023/08/23 01:08:29;;;;;;;9.98;8.13;;;;;;;;;;4907460;29;20063;-81
2023/08/23 01:11:03;;;;;;;11.15;7.60;;;;;;;;;;4910386;29;20055;-81
2023/08/23 01:13:34;;;;;;;13.70;7.60;;;;;;;;;;4899953;29;20054;-80
2023/08/23 01:16:02;;;;;;;9.35;7.35;;;;;;;;;;4904131;29;20051;-80
2023/08/23 01:18:31;;;;;;;9.77;8.77;;;;;;;;;;4913105;29;20551;-80
2023/08/23 01:21:02;;;;;;;9.02;6.38;;;;;;;;;;4912333;29;20067;-80
2023/08/23 01:23:31;;;;;;;7.53;6.85;;;;;;;;;;4920638;29;20055;-79
2023/08/23 01:25:59;;;;;;;10.00;7.63;;;;;;;;;;4913177;29;20054;-79
2023/08/23 01:28:27;;;;;;;9.52;7.95;;;;;;;;;;4898104;29;20430;-79
2023/08/23 01:30:56;;;;;;;9.45;7.38;;;;;;;;;;4910652;29;20503;-80
2023/08/23 01:33:29;;;;;;;7.97;7.28;;;;;;;;;;4889624;29;20052;-80
2023/08/23 01:36:01;;;;;;;8.77;6.57;;;;;;;;;;4896698;29;20071;-80
2023/08/23 01:38:35;;;;;;;7.85;7.15;;;;;;;;;;4896814;29;20067;-81
2023/08/23 01:41:05;;;;;;;11.70;8.63;;;;;;;;;;4901174;29;20066;-80
2023/08/23 01:43:35;;;;;;;11.70;8.48;;;;;;;;;;4928667;29;20060;-81
2023/08/23 01:46:02;;;;;;;14.43;7.70;;;;;;;;;;4908633;29;20048;-80
2023/08/23 01:48:30;;;;;;;10.65;7.07;;;;;;;;;;4916758;29;20393;-80
2023/08/23 01:51:02;;;;;;;10.13;7.57;;;;;;;;;;4901510;29;20063;-81
2023/08/23 01:53:32;;;;;;;11.20;8.32;;;;;;;;;;4918285;29;20082;-80
2023/08/23 01:56:03;;;;;;;10.45;8.60;;;;;;;;;;4932071;29;20134;-80
2023/08/23 01:58:32;;;;;;;9.77;7.03;;;;;;;;;;4905897;29;20285;-80
2023/08/23 02:01:00;;;;;;;8.80;7.25;;;;;;;;;;4912071;29;20048;-80
2023/08/23 02:03:30;;;;;;;8.75;7.40;;;;;;;;;;4891914;29;20409;-80
2023/08/23 02:06:00;;;;;;;9.00;7.35;;;;;;;;;;4925684;29;20059;-80
2023/08/23 02:08:27;;;;;;;8.70;7.63;;;;;;;;;;4893545;29;20055;-80
2023/08/23 02:10:55;;;;;;;9.18;7.82;;;;;;;;;;4918974;29;20048;-80
2023/08/23 02:13:23;;;;;;;12.10;8.38;;;;;;;;;;4907470;29;20037;-80
2023/08/23 02:15:53;;;;;;;11.15;6.75;;;;;;;;;;4910267;29;20056;-80
2023/08/23 02:18:22;;;;;;;14.35;7.57;;;;;;;;;;4928549;29;20051;-80
2023/08/23 02:20:56;;;;;;;;;;;;;;;;;;4902928;29;20067;-80
2023/08/23 02:23:24;;;;;;;11.05;8.65;;;;;;;;;;4900984;29;19931;-80
2023/08/23 02:25:53;;;;;;;9.73;8.52;;;;;;;;;;4901064;29;20075;-80
2023/08/23 02:28:24;;;;;;;10.68;7.90;;;;;;;;;;4922454;29;20051;-80
2023/08/23 02:30:51;;;;;;;10.13;7.78;;;;;;;;;;4938646;29;20067;-80
2023/08/23 02:33:18;;;;;;;9.40;8.07;;;;;;;;;;4898022;29;20413;-80
2023/08/23 02:35:48;;;;;;;9.60;8.63;;;;;;;;;;4919520;29;20058;-80
2023/08/23 02:38:15;;;;;;;9.40;8.50;;;;;;;;;;4892612;29;20704;-81
2023/08/23 02:40:43;;;;;;;8.77;7.95;;;;;;;;;;4918074;29;20060;-80
2023/08/23 02:43:10;;;;;;;11.77;7.50;;;;;;;;;;4918750;29;20043;-80
2023/08/23 02:45:42;;;;;;;8.93;7.82;;;;;;;;;;4920844;29;20060;-80
2023/08/23 02:48:13;;;;;;;8.43;7.65;;;;;;;;;;4923505;29;20056;-80
2023/08/23 02:50:45;;;;;;;8.38;7.50;;;;;;;;;;4932725;29;20063;-80
2023/08/23 02:53:14;;;;;;;9.98;7.88;;;;;;;;;;4918924;29;20044;-80
2023/08/23 02:55:44;;;;;;;7.95;6.88;;;;;;;;;;4905668;29;20063;-80
2023/08/23 02:58:11;;;;;;;7.80;7.05;;;;;;;;;;4892644;29;20059;-80
2023/08/23 03:00:45;;;;;;;9.57;8.65;;;;;;;;;;4918532;29;20062;-80
2023/08/23 03:03:14;;;;;;;8.40;7.60;;;;;;;;;;4905843;29;20067;-80
2023/08/23 03:05:50;;;;;;;10.35;7.22;;;;;;;;;;4923068;29;20051;-80
2023/08/23 03:08:19;;;;;;;9.32;8.43;;;;;;;;;;4900838;29;20055;-80
2023/08/23 03:10:47;;;;;;;14.60;8.82;;;;;;;;;;4890810;29;20053;-81
2023/08/23 03:13:14;;;;;;;8.40;7.65;;;;;;;;;;4914922;29;20409;-80
2023/08/23 03:15:45;;;;;;;7.65;6.95;;;;;;;;;;4921508;29;20055;-82
2023/08/23 03:18:13;;;;;;;8.88;8.02;;;;;;;;;;4916507;29;20056;-82
2023/08/23 03:20:44;;;;;;;8.32;7.63;;;;;;;;;;4911015;29;20052;-82
2023/08/23 03:23:14;;;;;;;7.90;7.20;;;;;;;;;;4898380;29;20060;-82
2023/08/23 03:25:41;;;;;;;9.40;8.60;;;;;;;;;;4911560;29;20056;-82
2023/08/23 03:28:12;;;;;;;8.30;7.50;;;;;;;;;;4900619;29;20531;-82
2023/08/23 03:30:40;;;;;;;10.30;9.30;;;;;;;;;;4911825;29;20051;-82
2023/08/23 03:33:08;;;;;;;8.35;7.60;;;;;;;;;;4937456;29;20047;-82
2023/08/23 03:35:36;;;;;;;9.98;8.32;;;;;;;;;;4887449;29;20067;-82
2023/08/23 03:38:05;;;;;;;8.55;7.38;;;;;;;;;;4904507;29;20064;-82
2023/08/23 03:40:35;;;;;;;8.55;7.15;;;;;;;;;;4923954;29;20055;-82
2023/08/23 03:43:05;;;;;;;9.30;8.32;;;;;;;;;;4935843;29;20050;-82
2023/08/23 03:45:32;;;;;;;8.98;8.25;;;;;;;;;;4915093;29;20056;-82
2023/08/23 03:48:02;;;;;;;9.40;7.95;;;;;;;;;;4887511;29;20064;-82
2023/08/23 03:50:30;;;;;;;11.95;9.50;;;;;;;;;;4904966;29;20059;-82
2023/08/23 03:52:59;;;;;;;11.68;8.57;;;;;;;;;;4899522;29;20052;-82
2023/08/23 03:55:29;;;;;;;9.23;8.32;;;;;;;;;;4902020;29;20092;-82
2023/08/23 03:57:58;;;;;;;11.23;8.27;;;;;;;;;;4896684;29;20548;-82
2023/08/23 04:00:30;;;;;;;8.13;6.97;;;;;;;;;;4909207;29;20071;-82
2023/08/23 04:02:58;;;;;;;8.75;7.90;;;;;;;;;;4913953;29;20432;-82
2023/08/23 04:05:25;;;;;;;7.65;6.90;;;;;;;;;;4920304;29;20051;-82
2023/08/23 04:07:54;;;;;;;9.48;8.40;;;;;;;;;;4899224;29;20074;-82
2023/08/23 04:10:21;;;;;;;8.35;7.63;;;;;;;;;;4908487;29;20511;-82
2023/08/23 04:12:53;;;;;;;10.98;9.43;;;;;;;;;;4921490;23;20052;-80
2023/08/23 04:15:23;;;;;;;12.18;9.13;;;;;;;;;;4879528;29;20107;-83
2023/08/23 04:17:50;;;;;;;9.52;8.63;;;;;;;;;;4876035;29;20045;-84
2023/08/23 04:20:17;;;;;;;9.70;8.70;;;;;;;;;;4891410;29;20429;-83
2023/08/23 04:22:45;;;;;;;10.20;9.18;;;;;;;;;;4893488;29;20437;-83
2023/08/23 04:25:15;;;;;;;14.38;8.20;;;;;;;;;;4862439;29;20060;-83
2023/08/23 04:27:43;;;;;;;12.38;8.40;;;;;;;;;;4864284;29;20049;-84
2023/08/23 04:30:19;;;;;;;8.93;8.13;;;;;;;;;;4879465;29;20064;-84
2023/08/23 04:32:53;;;;;;;10.38;7.82;;;;;;;;;;4887846;29;20057;-83
2023/08/23 04:35:23;;;;;;;8.60;7.78;;;;;;;;;;4878628;29;20060;-84
2023/08/23 04:37:53;;;;;;;9.02;8.20;;;;;;;;;;4881738;29;20053;-84
2023/08/23 04:40:23;;;;;;;10.10;8.02;;;;;;;;;;4875801;29;20053;-84
2023/08/23 04:42:53;;;;;;;8.13;7.38;;;;;;;;;;4877440;29;20123;-84
2023/08/23 04:45:23;;;;;;;8.43;7.72;;;;;;;;;;4876839;29;20064;-84
2023/08/23 04:47:54;;;;;;;11.75;8.27;;;;;;;;;;4860720;29;20061;-84
2023/08/23 04:50:27;;;;;;;9.17;8.37;;;;;;;;;;4883713;29;20068;-84
2023/08/23 04:52:54;;;;;;;12.60;7.78;;;;;;;;;;4862228;29;20060;-84
2023/08/23 04:55:24;;;;;;;9.77;8.90;;;;;;;;;;4877115;29;20259;-85
2023/08/23 04:57:52;;;;;;;9.38;8.60;;;;;;;;;;4879159;29;20053;-84
2023/08/23 05:00:19;;;;;;;10.23;9.35;;;;;;;;;;4877074;29;20049;-83
2023/08/23 05:02:49;;;;;;;9.23;8.25;;;;;;;;;;4862789;29;20510;-84
2023/08/23 05:05:22;;;;;;;9.00;8.20;;;;;;;;;;4891728;29;20055;-84
2023/08/23 05:07:49;;;;;;;14.43;9.13;;;;;;;;;;4845789;29;20075;-84
2023/08/23 05:10:20;;;;;;;10.30;9.25;;;;;;;;;;4892502;29;20053;-83
2023/08/23 05:12:52;;;;;;;10.00;9.10;;;;;;;;;;4873006;29;20052;-84
2023/08/23 05:15:21;;;;;;;9.77;8.88;;;;;;;;;;4855761;29;20061;-84
2023/08/23 05:17:53;;;;;;;10.00;8.77;;;;;;;;;;4867436;29;20052;-84
2023/08/23 05:20:20;;;;;;;15.07;9.68;;;;;;;;;;4885222;29;20433;-84
2023/08/23 05:22:53;;;;;;;8.23;7.43;;;;;;;;;;4891201;29;20084;-84
2023/08/23 05:25:22;;;;;;;8.85;7.97;;;;;;;;;;4876229;29;20060;-84
2023/08/23 05:27:54;;;;;;;12.77;7.68;;;;;;;;;;4861316;29;20045;-84
2023/08/23 05:30:21;;;;;;;10.75;6.68;;;;;;;;;;4877270;29;20056;-84
2023/08/23 05:32:51;;;;;;;7.72;6.88;;;;;;;;;;4860837;29;20057;-84
2023/08/23 05:35:19;;;;;;;8.88;6.70;;;;;;;;;;4882610;29;20060;-84
2023/08/23 05:37:49;;;;;;;6.90;6.30;;;;;;;;;;4877795;29;20060;-85
2023/08/23 05:40:17;;;;;;;9.70;5.78;;;;;;;;;;4862323;29;20045;-84
2023/08/23 05:42:47;;;;;;;7.40;6.70;;;;;;;;;;4876704;29;20061;-84
2023/08/23 05:45:16;;;;;;;6.10;5.60;;;;;;;;;;4860247;29;20423;-83
2023/08/23 05:47:48;;;;;;;6.15;5.55;;;;;;;;;;4857811;29;20060;-83
2023/08/23 05:50:16;;;;;;;8.35;5.47;;;;;;;;;;4866859;29;20603;-84
2023/08/23 05:52:50;;;;;;;7.03;5.78;;;;;;;;;;4862321;29;20049;-84
2023/08/23 05:55:17;;;;;;;5.45;5.05;;;;;;;;;;4878047;29;20049;-84
2023/08/23 05:57:45;;;;;;;8.30;5.53;;;;;;;;;;4878314;29;20049;-84
2023/08/23 06:00:14;;;;;;;7.35;5.50;;;;;;;;;;4880923;29;20195;-84
2023/08/23 06:02:46;;;;;;;9.52;6.63;;;;;;;;;;4879092;29;20049;-84
2023/08/23 06:05:21;;;;;;;5.13;4.72;;;;;;;;;;4881809;29;20055;-84
2023/08/23 06:07:51;;;;;;;6.68;5.38;;;;;;;;;;4866567;29;20057;-84
2023/08/23 06:10:20;;;;;;;6.65;6.05;;;;;;;;;;4885264;29;20056;-84
2023/08/23 06:12:48;;;;;;;5.45;4.95;;;;;;;;;;4883619;29;20060;-84
2023/08/23 06:15:18;;;;;;;5.80;5.18;;;;;;;;;;4881612;29;20056;-84
2023/08/23 06:17:49;;;;;;;18.55;6.78;;;;;;;;;;4881423;29;20534;-84
2023/08/23 06:20:20;;;;;;;7.50;5.30;;;;;;;;;;4884629;29;20124;-85
2023/08/23 06:22:50;;;;;;;7.20;4.95;;;;;;;;;;4888681;29;20060;-85
2023/08/23 06:25:23;;;;;;;8.07;5.28;;;;;;;;;;4901331;29;20053;-84
2023/08/23 06:28:04;;;;;;;6.68;5.78;;;;;;;;;;4894183;29;20061;-84
2023/08/23 06:30:33;;;;;;;6.55;5.75;;;;;;;;;;4895369;29;20056;-84
2023/08/23 06:33:05;;;;;;;8.07;5.45;;;;;;;;;;4865419;29;20061;-84
2023/08/23 06:35:32;;;;;;;5.63;4.80;;;;;;;;;;4905288;29;20501;-84
2023/08/23 06:38:00;;;;;;;5.63;5.18;;;;;;;;;;4886331;29;20053;-85
2023/08/23 06:40:32;;;;;;;5.53;5.07;;;;;;;;;;4879379;29;20063;-85
2023/08/23 06:43:01;;;;;;;6.40;4.80;;;;;;;;;;4861701;29;20128;-85
2023/08/23 06:45:31;;;;;;;6.97;5.85;;;;;;;;;;4894513;29;20068;-85
2023/08/23 06:47:58;;;;;;;11.13;5.43;;;;;;;;;;4860261;29;20059;-85
2023/08/23 06:50:29;;;;;;;4.97;4.57;;;;;;;;;;4896913;29;20059;-85
2023/08/23 06:52:56;;;;;;;6.63;5.22;;;;;;;;;;4896924;29;20063;-85
2023/08/23 06:55:28;;;;;;;8.68;5.75;;;;;;;;;;4878024;29;20509;-85
2023/08/23 06:57:58;;;;;;;5.65;5.13;;;;;;;;;;4876916;29;20045;-84
2023/08/23 07:00:27;;;;;;;4.95;4.50;;;;;;;;;;4871344;29;20494;-84
2023/08/23 07:02:54;;;;;;;4.88;4.47;;;;;;;;;;4881836;29;20080;-84
2023/08/23 07:05:24;;;;;;;5.78;5.18;;;;;;;;;;4861758;29;20053;-84
2023/08/23 07:07:53;;;;;;;5.80;5.30;;;;;;;;;;4875269;29;20404;-85
2023/08/23 07:10:20;;;;;;;4.60;4.20;;;;;;;;;;4869051;29;20060;-85
2023/08/23 07:12:47;;;;;;;5.00;4.53;;;;;;;;;;4878966;29;20048;-85
2023/08/23 07:15:14;;;;;;;5.50;4.57;;;;;;;;;;4890958;29;20045;-84
2023/08/23 07:17:42;;;;;;;7.88;5.60;;;;;;;;;;4861586;29;20057;-85
2023/08/23 07:20:12;;;;;;;5.28;4.75;;;;;;;;;;4875410;29;20056;-85
2023/08/23 07:22:41;;;;;;;4.85;4.35;;;;;;;;;;4874521;29;20425;-85
2023/08/23 07:25:14;;;;;;;7.55;4.78;;;;;;;;;;4884329;29;20048;-85
2023/08/23 07:27:42;;;;;;;16.92;5.60;;;;;;;;;;4890266;29;20060;-86
2023/08/23 07:30:10;;;;;;;5.40;4.93;;;;;;;;;;4878001;29;20055;-85
2023/08/23 07:32:37;;;;;;;5.03;4.50;;;;;;;;;;4881030;29;20057;-85
2023/08/23 07:35:07;;;;;;;5.00;4.57;;;;;;;;;;4878567;29;20446;-85
2023/08/23 07:37:35;;;;;;;5.10;4.70;;;;;;;;;;4879178;29;20061;-85
2023/08/23 07:40:04;;;;;;;6.07;4.45;;;;;;;;;;4878925;29;20107;-85
2023/08/23 07:42:32;;;;;;;5.70;5.05;;;;;;;;;;4877529;29;20067;-85
2023/08/23 07:45:02;;;;;;;8.23;4.18;;;;;;;;;;4885930;29;20061;-85
2023/08/23 07:47:29;;;;;;;5.03;4.63;;;;;;;;;;4865214;29;20056;-85
2023/08/23 07:49:57;;;;;;;6.45;4.65;;;;;;;;;;4862636;29;20061;-85
2023/08/23 07:52:29;;;;;;;5.05;4.72;;;;;;;;;;4878703;29;20049;-85
2023/08/23 07:54:56;;;;;;;5.63;4.47;;;;;;;;;;4891759;29;20060;-86
2023/08/23 07:57:26;;;;;;;5.97;4.72;;;;;;;;;;4892397;29;20409;-86
2023/08/23 07:59:56;;;;;;;5.22;4.72;;;;;;;;;;4876797;29;20056;-85
2023/08/23 08:02:30;;;;;;;7.75;4.25;;;;;;;;;;4871884;29;20049;-85
2023/08/23 08:04:57;;;;;;;6.50;4.43;;;;;;;;;;4870632;29;20498;-85
2023/08/23 08:07:30;;;;;;;4.90;4.50;;;;;;;;;;4880828;29;20065;-85
2023/08/23 08:09:59;;;;;;;4.97;3.88;;;;;;;;;;4867195;29;20049;-85
2023/08/23 08:12:31;;;;;;;4.40;4.10;;;;;;;;;;4890652;29;20045;-85
2023/08/23 08:15:05;;;;;;;6.32;4.28;;;;;;;;;;4875248;29;20516;-85
2023/08/23 08:17:33;;;;;;;6.50;3.97;;;;;;;;;;4875474;29;20045;-86
2023/08/23 08:20:18;;;;;;;4.80;4.28;;;;;;;;;;4862734;29;20123;-85
2023/08/23 08:22:48;;;;;;;4.45;3.58;;;;;;;;;;4891263;29;20056;-85
2023/08/23 08:25:20;;;;;;;6.55;4.35;;;;;;;;;;4877893;29;20437;-86
2023/08/23 08:27:51;;;;;;;4.93;3.75;;;;;;;;;;4896817;29;20052;-85
2023/08/23 08:30:22;;;;;;;4.43;3.90;;;;;;;;;;4866308;29;20056;-85
2023/08/23 08:32:51;;;;;;;6.53;4.95;;;;;;;;;;4877156;29;20515;-85
2023/08/23 08:35:19;;;;;;;6.03;3.95;;;;;;;;;;4876741;29;20402;-84
2023/08/23 08:37:46;;;;;;;5.70;4.63;;;;;;;;;;4872569;29;20076;-84
2023/08/23 08:40:16;;;;;;;7.13;4.25;;;;;;;;;;4866014;29;20057;-85
2023/08/23 08:42:47;;;;;;;7.00;3.25;;;;;;;;;;4877398;29;20409;-85
2023/08/23 08:45:16;;;;;;;7.28;3.70;;;;;;;;;;4877216;29;20064;-85
2023/08/23 08:47:48;;;;;;;6.80;3.47;;;;;;;;;;4876029;29;20052;-85
2023/08/23 08:50:20;;;;;;;5.43;3.42;;;;;;;;;;4871396;29;20073;-85
2023/08/23 08:52:53;;;;;;;4.53;3.67;;;;;;;;;;4887021;29;20599;-85
2023/08/23 08:55:23;;;;;;;6.10;3.95;;;;;;;;;;4877869;29;20056;-85
2023/08/23 08:57:53;;;;;;;4.38;3.85;;;;;;;;;;4860269;29;20049;-85
2023/08/23 09:00:26;;;;;;;5.43;3.97;;;;;;;;;;4877354;29;20064;-86
2023/08/23 09:02:59;;;;;;;8.85;4.53;;;;;;;;;;4889606;29;20056;-85
2023/08/23 09:05:27;;;;;;;8.68;4.95;;;;;;;;;;4874580;29;20068;-85
2023/08/23 09:07:56;;;;;;;3.90;3.30;;;;;;;;;;4875526;29;20061;-85
2023/08/23 09:10:25;;;;;;;4.13;3.40;;;;;;;;;;4891265;29;20060;-85
2023/08/23 09:12:55;;;;;;;4.32;3.90;;;;;;;;;;4891198;29;20045;-85
2023/08/23 09:15:24;;;;;;;6.30;3.72;;;;;;;;;;4874200;29;20067;-85
2023/08/23 09:17:54;;;;;;;5.28;3.85;;;;;;;;;;4876739;29;20049;-85
2023/08/23 09:20:27;;;;;;;18.67;4.45;;;;;;;;;;4889148;29;20068;-85
2023/08/23 09:22:55;;;;;;;6.30;3.63;;;;;;;;;;4893189;29;20516;-84
2023/08/23 09:25:24;;;;;;;4.43;3.83;;;;;;;;;;4878563;29;20056;-85
2023/08/23 09:27:53;;;;;;;4.25;3.85;;;;;;;;;;4891120;29;20067;-85
2023/08/23 09:30:20;;;;;;;6.90;3.85;;;;;;;;;;4891179;29;20053;-85
2023/08/23 09:32:52;;;;;;;5.93;3.78;;;;;;;;;;4886411;29;20060;-85
2023/08/23 09:35:24;;;;;;;4.20;3.00;;;;;;;;;;4878549;29;20060;-84
2023/08/23 09:37:55;;;;;;;8.20;3.47;;;;;;;;;;4863938;29;20053;-84
2023/08/23 09:40:28;;;;;;;6.45;3.15;;;;;;;;;;4879992;29;20060;-85
2023/08/23 09:43:00;;;;;;;6.78;2.60;;;;;;;;;;4877809;29;20539;-86
2023/08/23 09:45:33;;;;;;;3.67;2.58;;;;;;;;;;4892035;29;20520;-86
2023/08/23 09:48:04;;;;;;;3.13;2.70;;;;;;;;;;4877534;29;20064;-85
2023/08/23 09:50:42;;;;;;;3.75;2.80;;;;;;;;;;4904752;29;20539;-86
2023/08/23 09:53:22;;;;;;;3.35;3.00;;;;;;;;;;4883621;29;20056;-86
2023/08/23 09:55:59;;;;;;;4.15;3.30;;;;;;;;;;4909171;29;20350;-87
2023/08/23 09:58:34;;;;;;;4.70;3.28;;;;;;;;;;4878245;29;20064;-86
2023/08/23 10:01:05;;;;;;;4.32;3.40;;;;;;;;;;4886864;29;20064;-85
2023/08/23 10:03:35;;;;;;;4.38;3.53;;;;;;;;;;4881486;29;20547;-85
2023/08/23 10:06:08;;;;;;;4.75;3.67;;;;;;;;;;4882279;29;20060;-85
2023/08/23 10:08:42;;;;;;;5.35;3.55;;;;;;;;;;4887331;29;20442;-86
2023/08/23 10:11:10;;;;;;;6.50;3.88;;;;;;;;;;4896297;29;20064;-86
2023/08/23 10:13:48;;;;;;;4.10;3.80;;;;;;;;;;4897884;23;20060;-83
2023/08/23 10:16:48;;;;;;;4.70;4.30;;;;;;;;;;4896626;29;20061;-82
2023/08/23 10:19:20;;;;;;;4.13;3.80;;;;;;;;;;4893602;29;20053;-84
2023/08/23 10:21:53;;;;;;;4.18;3.88;;;;;;;;;;4893872;29;20044;-85
2023/08/23 10:27:40;;;;;;;3.85;3.30;;;;;;;;;;4894475;29;20041;-85
2023/08/23 10:30:23;;;;;;;4.35;3.88;;;;;;;;;;4898033;29;20040;-85
2023/08/23 10:35:45;;;;;;;5.20;3.70;;;;;;;;;;4892843;29;20182;-85
2023/08/23 10:38:28;;;;;;;6.65;4.38;;;;;;;;;;4898916;29;20056;-85
2023/08/23 10:41:06;;;;;;;4.15;3.70;;;;;;;;;;4863530;29;20497;-85
2023/08/23 10:43:34;;;;;;;4.63;4.22;;;;;;;;;;4883352;29;20063;-85
2023/08/23 10:46:06;;;;;;;5.18;4.40;;;;;;;;;;4893143;29;20423;-85
2023/08/23 10:48:33;;;;;;;4.10;3.80;;;;;;;;;;4881410;29;20063;-85
2023/08/23 10:51:03;;;;;;;7.50;4.13;;;;;;;;;;4895855;29;20051;-85
2023/08/23 10:53:31;;;;;;;4.75;4.20;;;;;;;;;;4895477;29;20052;-85
2023/08/23 10:56:02;;;;;;;7.22;4.57;;;;;;;;;;4880424;29;20430;-85
2023/08/23 10:58:36;;;;;;;4.93;4.32;;;;;;;;;;4882099;29;20523;-85
2023/08/23 11:01:04;;;;;;;3.72;3.42;;;;;;;;;;4889922;29;20053;-85
2023/08/23 11:03:32;;;;;;;8.32;4.30;;;;;;;;;;4880298;29;20072;-85
2023/08/23 11:05:59;;;;;;;4.38;4.07;;;;;;;;;;4895354;29;20041;-85
2023/08/23 11:08:29;;;;;;;6.32;4.85;;;;;;;;;;4895211;29;20409;-85
2023/08/23 11:10:56;;;;;;;6.18;4.65;;;;;;;;;;4897886;29;20505;-85
2023/08/23 11:13:27;;;;;;;4.55;4.20;;;;;;;;;;4902283;29;20049;-85
2023/08/23 11:15:59;;;;;;;7.22;4.13;;;;;;;;;;4894871;29;20059;-85
2023/08/23 11:18:29;;;;;;;5.22;3.75;;;;;;;;;;4893992;29;20064;-85
2023/08/23 11:20:56;;;;;;;6.05;3.90;;;;;;;;;;4895456;29;20055;-85
2023/08/23 11:23:24;;;;;;;5.93;4.63;;;;;;;;;;4896739;29;20056;-85
2023/08/23 11:25:53;;;;;;;4.65;4.18;;;;;;;;;;4876233;29;20063;-85
2023/08/23 11:28:26;;;;;;;4.72;4.05;;;;;;;;;;4878850;29;20063;-85
2023/08/23 11:30:54;;;;;;;6.32;4.07;;;;;;;;;;4896882;29;20056;-84
2023/08/23 11:33:23;;;;;;;6.75;4.78;;;;;;;;;;4894170;29;20081;-85
2023/08/23 11:35:54;;;;;;;4.18;3.78;;;;;;;;;;4895784;29;20507;-84
2023/08/23 11:38:27;;;;;;;6.75;4.25;;;;;;;;;;4895928;29;20056;-83
2023/08/23 11:41:00;;;;;;;3.70;3.40;;;;;;;;;;4894234;29;20055;-84
2023/08/23 11:43:31;;;;;;;4.45;4.15;;;;;;;;;;4873615;29;20056;-84
2023/08/23 11:45:58;;;;;;;4.68;3.80;;;;;;;;;;4894761;29;20057;-84
2023/08/23 11:48:28;;;;;;;4.40;3.90;;;;;;;;;;4895805;29;20055;-84
2023/08/23 11:50:58;;;;;;;8.02;3.53;;;;;;;;;;4894665;29;20052;-84
2023/08/23 11:53:26;;;;;;;4.05;3.70;;;;;;;;;;4880376;29;20689;-84
2023/08/23 11:55:57;;;;;;;4.72;4.25;;;;;;;;;;4896457;29;20059;-84
2023/08/23 11:58:28;;;;;;;4.68;4.07;;;;;;;;;;4881274;29;20052;-84
2023/08/23 12:00:59;;;;;;;4.43;3.92;;;;;;;;;;4892474;29;20421;-84
2023/08/23 12:03:29;;;;;;;4.47;3.92;;;;;;;;;;4879069;29;20053;-84
2023/08/23 12:06:01;;;;;;;;;;;;;;;;;;4884371;29;20056;-84
2023/08/23 12:08:33;;;;;;;4.57;3.78;;;;;;;;;;4894563;29;19923;-84
2023/08/23 12:11:00;;;;;;;4.25;3.88;;;;;;;;;;4897495;29;20050;-84
2023/08/23 12:13:28;;;;;;;6.07;3.80;;;;;;;;;;4863906;29;20048;-84
2023/08/23 12:15:57;;;;;;;3.72;3.40;;;;;;;;;;4898218;29;20053;-84
2023/08/23 12:18:28;;;;;;;8.65;3.83;;;;;;;;;;4879134;29;20059;-84
2023/08/23 12:20:56;;;;;;;4.28;3.35;;;;;;;;;;4882587;29;20592;-84
2023/08/23 12:23:23;;;;;;;6.75;3.63;;;;;;;;;;4875115;29;20040;-84
2023/08/23 12:25:50;;;;;;;3.45;3.15;;;;;;;;;;4897893;29;20068;-84
2023/08/23 12:28:18;;;;;;;3.70;3.40;;;;;;;;;;4893538;29;20485;-84
2023/08/23 12:30:47;;;;;;;4.70;2.95;;;;;;;;;;4894801;29;20063;-85
2023/08/23 12:33:14;;;;;;;3.33;3.03;;;;;;;;;;4894815;29;20052;-84
2023/08/23 12:35:48;;;;;;;5.20;3.83;;;;;;;;;;4895276;29;20421;-84
2023/08/23 12:38:15;;;;;;;3.08;2.78;;;;;;;;;;4877015;29;20055;-84
2023/08/23 12:40:43;;;;;;;3.17;2.88;;;;;;;;;;4882479;29;20063;-84
2023/08/23 12:43:13;;;;;;;2.97;2.70;;;;;;;;;;4875412;29;20063;-84
2023/08/23 12:45:42;;;;;;;3.50;3.20;;;;;;;;;;4899963;29;20052;-84
2023/08/23 12:48:12;;;;;;;3.65;2.88;;;;;;;;;;4877972;29;20059;-84
2023/08/23 12:50:41;;;;;;;3.75;3.42;;;;;;;;;;4895927;29;20052;-84
2023/08/23 12:53:12;;;;;;;3.78;2.97;;;;;;;;;;4892861;29;20060;-84
2023/08/23 12:55:44;;;;;;;3.17;2.70;;;;;;;;;;4894630;29;20051;-83
2023/08/23 12:58:14;;;;;;;3.35;2.95;;;;;;;;;;4892683;29;20052;-84
2023/08/23 13:00:44;;;;;;;5.07;3.60;;;;;;;;;;4895677;29;20055;-84
2023/08/23 13:03:11;;;;;;;3.25;2.90;;;;;;;;;;4891489;29;20630;-84
2023/08/23 13:05:38;;;;;;;2.58;2.38;;;;;;;;;;4895173;29;20052;-82
2023/08/23 13:08:06;;;;;;;5.05;3.75;;;;;;;;;;4876799;29;20405;-81
2023/08/23 13:10:38;;;;;;;4.78;3.65;;;;;;;;;;4896991;29;20056;-81
2023/08/23 13:13:07;;;;;;;;;;;;;;;;;;4896422;29;20528;-81
2023/08/23 13:15:37;;;;;;;4.03;2.75;;;;;;;;;;4893161;29;19931;-82
2023/08/23 13:18:06;;;;;;;5.50;3.03;;;;;;;;;;4888706;29;20047;-82
2023/08/23 13:20:36;;;;;;;6.15;3.38;;;;;;;;;;4895404;29;20052;-82
2023/08/23 13:23:03;;;;;;;6.40;3.42;;;;;;;;;;4894374;29;20386;-82
2023/08/23 13:25:31;;;;;;;5.30;3.40;;;;;;;;;;4894804;29;20060;-82
2023/08/23 13:28:03;;;;;;;4.38;3.95;;;;;;;;;;4893434;29;20055;-82
2023/08/23 13:30:33;;;;;;;3.72;3.30;;;;;;;;;;4895823;29;20135;-81
2023/08/23 13:33:00;;;;;;;3.72;3.42;;;;;;;;;;4884345;29;20068;-81
2023/08/23 13:35:27;;;;;;;3.63;3.33;;;;;;;;;;4878841;29;20056;-81
2023/08/23 13:37:54;;;;;;;5.28;3.58;;;;;;;;;;4891917;29;20056;-81
2023/08/23 13:40:26;;;;;;;6.03;4.97;;;;;;;;;;4878940;29;20517;-81
2023/08/23 13:42:56;;;;;;;5.60;4.07;;;;;;;;;;4877359;29;20067;-81
2023/08/23 13:45:25;;;;;;;4.30;3.90;;;;;;;;;;4895139;29;20069;-81
2023/08/23 13:47:54;;;;;;;7.68;3.90;;;;;;;;;;4893822;29;20049;-81
2023/08/23 13:50:22;;;;;;;4.70;3.33;;;;;;;;;;4893352;29;20680;-81
2023/08/23 13:52:51;;;;;;;3.58;3.08;;;;;;;;;;4894092;29;20056;-81
2023/08/23 13:55:18;;;;;;;5.55;3.58;;;;;;;;;;4879349;29;20055;-81
2023/08/23 13:57:46;;;;;;;5.45;4.53;;;;;;;;;;4878456;29;20044;-81
2023/08/23 14:00:14;;;;;;;3.75;3.45;;;;;;;;;;4864334;29;20118;-81
2023/08/23 14:02:42;;;;;;;6.18;3.03;;;;;;;;;;4905993;29;20072;-82
2023/08/23 14:05:09;;;;;;;6.72;4.47;;;;;;;;;;4894799;29;20068;-81
2023/08/23 14:07:37;;;;;;;4.63;3.15;;;;;;;;;;4878261;29;20071;-81
2023/08/23 14:10:05;;;;;;;3.17;2.88;;;;;;;;;;4895440;29;20048;-81
2023/08/23 14:12:37;;;;;;;6.18;3.40;;;;;;;;;;4895571;29;20056;-82
2023/08/23 14:15:05;;;;;;;5.70;3.63;;;;;;;;;;4896222;29;20056;-81
2023/08/23 14:17:34;;;;;;;4.32;3.60;;;;;;;;;;4897215;29;20060;-81
2023/08/23 14:20:10;;;;;;;3.42;3.05;;;;;;;;;;4891803;29;20063;-81
2023/08/23 14:22:39;;;;;;;3.72;3.42;;;;;;;;;;4898441;29;20524;-81
2023/08/23 14:25:07;;;;;;;3.28;2.85;;;;;;;;;;4899282;29;20059;-82
2023/08/23 14:27:37;;;;;;;4.80;3.08;;;;;;;;;;4897991;29;20079;-82
2023/08/23 14:30:05;;;;;;;6.30;3.28;;;;;;;;;;4897817;29;20065;-82
2023/08/23 14:32:35;;;;;;;6.18;4.07;;;;;;;;;;4902448;29;20068;-81
2023/08/23 14:35:04;;;;;;;4.18;3.20;;;;;;;;;;4882059;29;20394;-81
2023/08/23 14:37:32;;;;;;;4.15;3.75;;;;;;;;;;4896510;29;20086;-81
2023/08/23 14:40:00;;;;;;;3.72;3.42;;;;;;;;;;4894310;29;20040;-81
2023/08/23 14:42:27;;;;;;;5.43;3.17;;;;;;;;;;4887853;29;20056;-81
2023/08/23 14:44:57;;;;;;;3.95;2.85;;;;;;;;;;4898081;29;20052;-81
2023/08/23 14:47:29;;;;;;;4.50;3.22;;;;;;;;;;4898190;29;20056;-81
2023/08/23 14:50:02;;;;;;;4.75;3.30;;;;;;;;;;4879329;29;20052;-81
2023/08/23 14:52:29;;;;;;;3.72;3.40;;;;;;;;;;4888019;29;20064;-81
2023/08/23 14:55:04;;;;;;;3.75;2.97;;;;;;;;;;4884443;29;20057;-81
2023/08/23 14:57:32;;;;;;;5.97;3.22;;;;;;;;;;4869187;29;20053;-81
2023/08/23 15:00:00;;;;;;;4.32;2.90;;;;;;;;;;4867210;29;20059;-81
2023/08/23 15:02:33;;;;;;;3.17;2.88;;;;;;;;;;4905235;29;20052;-81
2023/08/23 15:05:01;;;;;;;4.13;3.72;;;;;;;;;;4880832;29;20058;-81